Nearby METAR Reports

 

KTAN - Taunton, Massachusetts, USA
Distance from station: W 5mi, 8km
Updated: 01/17/2019 8:52am
Clear
Clear
 Wind from NW
Wind: NW 6 mph , 9 km/h
Temperature: 21°F , -6°C
Wind Chill: 13°F , -11°C
Dew Point: -0°F , -18°C
Humidity: 38%
Barometer: 30.39 inHg , 1029.1 hPa
Clouds: Clear
Visibility: 10 miles , 16 km
2019/01/17 13:52 KTAN 171352Z AUTO 31005KT 10SM CLR M06/M18 A3039 RMK AO2 SLP290 T10561178
KPYM - Plymouth, Massachusetts, USA
Distance from station: ENE 10mi, 16km
Updated: 01/17/2019 8:52am
Clear
Clear
 Wind from WNW
Wind: WNW 8 mph , 13 km/h
Temperature: 19°F , -7°C
Wind Chill: 9°F , -13°C
Dew Point: 1°F , -17°C
Humidity: 45%
Barometer: 30.39 inHg , 1029.1 hPa
Clouds: Clear
Visibility: 10 miles , 16 km
2019/01/17 13:52 KPYM 171352Z AUTO 30007KT 10SM CLR M07/M17 A3039 RMK AO2 SLP291 T10671172
 
KEWB - New Bedford, Massachusetts, USA
Distance from station: S 14mi, 23km
Updated: 01/17/2019 8:53am
Clear
Clear
 Wind from N
Wind: N 7 mph , 11 km/h
Temperature: 23°F , -5°C
Wind Chill: 15°F , -9°C
Dew Point: 1°F , -17°C
Humidity: 39%
Barometer: 30.38 inHg , 1028.8 hPa
Clouds: Clear
Visibility: 10 miles , 16 km
2019/01/17 13:53 KEWB 171353Z 36006KT 10SM CLR M05/M17 A3038 RMK AO2 SLP287 T10501172
KGHG - Marshfield, Massachusetts, USA
Distance from station: NE 20mi, 31km
Updated: 01/17/2019 9:35am
Clear
Clear
 Wind from NNW
Wind: NNW 8 mph , 13 km/h
Temperature: 21°F , -6°C
Wind Chill: 11°F , -12°C
Dew Point: -0°F , -18°C
Humidity: 38%
Barometer: 30.41 inHg , 1029.8 hPa
Clouds: Clear
Visibility: 10 miles , 16 km
2019/01/17 14:35 KGHG 171435Z AUTO 33007KT 10SM CLR M06/M18 A3041 RMK AO2
 
KOWD - Norwood, Massachusetts, USA
Distance from station: NNW 24mi, 39km
Updated: 01/17/2019 8:53am
Clear
Clear
 Wind from NW
Wind: NW 7 mph , 11 km/h
Temperature: 21°F , -6°C
Wind Chill: 12°F , -11°C
Dew Point: -0°F , -18°C
Humidity: 38%
Barometer: 30.40 inHg , 1029.5 hPa
Clouds: Clear
Visibility: 10 miles , 16 km
2019/01/17 13:53 KOWD 171353Z 32006KT 10SM CLR M06/M18 A3040 RMK AO2 SLP294 T10561178
KMQE - East Milton, Massachusetts, USA
Distance from station: NNW 25mi, 40km
Updated: 01/17/2019 8:56am

 Wind from NNW
Wind: NNW 10 mph , 17 km/h, Gust: 16 mph , 26 km/h
Temperature: 16°F , -9°C
Wind Chill: 4°F , -16°C
Dew Point: 1°F , -17°C
Humidity: 53%
Barometer: 30.33 inHg , 1027.1 hPa
2019/01/17 13:56 KMQE 171356Z AUTO 33009G14KT M09/M17 A3033 RMK AO1 SLP292 T10941172
 
KFMH - Falmouth/Otis Ab, Massachusetts, USA
Distance from station: SE 27mi, 44km
Updated: 01/17/2019 9:35am
Clear
Clear
 Wind from N
Wind: N 10 mph , 17 km/h
Temperature: 21°F , -6°C
Wind Chill: 10°F , -12°C
Dew Point: -2°F , -19°C
Humidity: 35%
Barometer: 30.39 inHg , 1029.1 hPa
Clouds: Clear
Visibility: 10 miles , 16 km
2019/01/17 14:35 KFMH 171435Z AUTO 35009KT 10SM CLR M06/M19 A3039 RMK AO2
KPVD - Providence/Green, Rhode Island, USA
Distance from station: WSW 29mi, 47km
Updated: 01/17/2019 8:51am
Partly cloudy
Partly cloudy
 Wind from N
Wind: N 12 mph , 19 km/h
Temperature: 21°F , -6°C
Wind Chill: 9°F , -13°C
Dew Point: 1°F , -17°C
Humidity: 42%
Barometer: 30.40 inHg , 1029.5 hPa
Clouds: Partly cloudy
Visibility: 10 miles , 16 km
Cloud details: Few Clouds 15000 ft
Partly cloudy 25000 ft
2019/01/17 13:51 KPVD 171351Z 01010KT 10SM FEW150 SCT250 M06/M17 A3040 RMK AO2 SLP292 T10561167
 
KSFZ - Pawtucket, Rhode Island, USA
Distance from station: W 30mi, 48km
Updated: 01/17/2019 8:56am
Clear
Clear
 Wind from N
Wind: N 9 mph , 15 km/h
Temperature: 18°F , -8°C
Wind Chill: 7°F , -14°C
Dew Point: 3°F , -16°C
Humidity: 53%
Barometer: 30.36 inHg , 1028.1 hPa
Clouds: Clear
Visibility: 10 miles , 16 km
2019/01/17 13:56 KSFZ 171356Z AUTO 35008KT 10SM CLR M08/M16 A3036 RMK AO2 SLP232 T10781161 FZRANO
KUUU - Newport, Rhode Island, USA
Distance from station: SW 31mi, 50km
Updated: 01/17/2019 8:53am
Clear
Clear
 Wind from NNW
Wind: NNW 12 mph , 19 km/h
Temperature: 23°F , -5°C
Wind Chill: 11°F , -12°C
Dew Point: -2°F , -19°C
Humidity: 33%
Barometer: 30.38 inHg , 1028.8 hPa
Clouds: Clear
Visibility: 10 miles , 16 km
2019/01/17 13:53 KUUU 171353Z AUTO 33010KT 10SM CLR M05/M19 A3038 RMK AO2 SLP288 T10501189
 
KOQU - N. Kingston/Quon, Rhode Island, USA
Distance from station: SW 32mi, 52km
Updated: 01/17/2019 8:50am
Partly cloudy
Partly cloudy
 Wind from NNE
Wind: NNE 6 mph , 9 km/h
Temperature: 23°F , -5°C
Wind Chill: 16°F , -9°C
Dew Point: -2°F , -19°C
Humidity: 33%
Barometer: 30.39 inHg , 1029.1 hPa
Clouds: Partly cloudy
Visibility: 15 miles , 24 km
Cloud details: Partly cloudy 25000 ft
2019/01/17 13:50 KOQU 171350Z 02005KT 15SM SCT250 M05/M19 A3039
KBOS - Boston, Massachusetts, USA
Distance from station: N 33mi, 54km
Updated: 01/17/2019 8:54am
Few Clouds
Few Clouds
 Wind from WNW
Wind: WNW 13 mph , 20 km/h
Temperature: 19°F , -7°C
Wind Chill: 6°F , -14°C
Dew Point: -4°F , -20°C
Humidity: 35%
Barometer: 30.40 inHg , 1029.5 hPa
Clouds: Few Clouds
Visibility: 10 miles , 16 km
Cloud details: Few Clouds 20000 ft
Few Clouds 25000 ft
2019/01/17 13:54 KBOS 171354Z 30011KT 10SM FEW200 FEW250 M07/M20 A3040 RMK AO2 SLP294 T10721200
 
KHYA - Hyannis, Massachusetts, USA
Distance from station: ESE 37mi, 59km
Updated: 01/17/2019 8:56am
Clear
Clear
 Wind from N
Wind: N 12 mph , 19 km/h, Gust: 21 mph , 33 km/h
Temperature: 25°F , -4°C
Wind Chill: 14°F , -10°C
Dew Point: 7°F , -14°C
Humidity: 46%
Barometer: 30.35 inHg , 1027.8 hPa
Clouds: Clear
Visibility: 10 miles , 16 km
2019/01/17 13:56 KHYA 171356Z 35010G18KT 10SM CLR M04/M14 A3035 RMK AO2 SLP281 T10391144
KMVY - Marthas Vineyard, Massachusetts, USA
Distance from station: SSE 37mi, 60km
Updated: 01/17/2019 8:53am
Clear
Clear
 Wind from NNW
Wind: NNW 12 mph , 19 km/h
Temperature: 25°F , -4°C
Wind Chill: 14°F , -10°C
Dew Point: 5°F , -15°C
Humidity: 42%
Barometer: 30.37 inHg , 1028.4 hPa
Clouds: Clear
Visibility: 10 miles , 16 km
2019/01/17 13:53 KMVY 171353Z 34010KT 10SM CLR M04/M15 A3037 RMK AO2 SLP285 T10391150
 
KPVC - Provincetown, Massachusetts, USA
Distance from station: ENE 38mi, 61km
Updated: 01/17/2019 8:56am
Clear
Clear
 Wind from NNW
Wind: NNW 14 mph , 22 km/h, Gust: 22 mph , 35 km/h
Temperature: 23°F , -5°C
Wind Chill: 11°F , -12°C
Dew Point: 9°F , -13°C
Humidity: 54%
Barometer: 30.39 inHg , 1029.1 hPa
Clouds: Clear
Visibility: 10 miles , 16 km
2019/01/17 13:56 KPVC 171356Z AUTO 33012G19KT 10SM CLR M05/M13 A3039 RMK AO2 SLP290 T10501128 FZRANO
KBED - Bedford, Massachusetts, USA
Distance from station: NNW 44mi, 72km
Updated: 01/17/2019 8:56am
Clear
Clear
 Wind from NW
Wind: NW 10 mph , 17 km/h
Temperature: 18°F , -8°C
Wind Chill: 6°F , -14°C
Dew Point: -2°F , -19°C
Humidity: 41%
Barometer: 30.39 inHg , 1029.1 hPa
Clouds: Clear
Visibility: 10 miles , 16 km
2019/01/17 13:56 KBED 171356Z 31009KT 10SM CLR M08/M19 A3039 RMK AO2 SLP307 T10831189
 
KBVY - Beverly, Massachusetts, USA
Distance from station: 0 48mi, 77km
Updated: 01/17/2019 8:53am
Clear
Clear
 Wind from NNW
Wind: NNW 17 mph , 28 km/h
Temperature: 18°F , -8°C
Wind Chill: 3°F , -16°C
Dew Point: -6°F , -21°C
Humidity: 35%
Barometer: 30.38 inHg , 1028.8 hPa
Clouds: Clear
Visibility: 10 miles , 16 km
2019/01/17 13:53 KBVY 171353Z 33015KT 10SM CLR M08/M21 A3038 RMK AO2 SLP285 T10831206
KCQX - Chatham, Massachusetts, USA
Distance from station: ESE 49mi, 80km
Updated: 01/17/2019 8:52am
Clear
Clear
 Wind from NNW
Wind: NNW 9 mph , 15 km/h
Temperature: 25°F , -4°C
Wind Chill: 16°F , -9°C
Dew Point: 7°F , -14°C
Humidity: 46%
Barometer: 30.37 inHg , 1028.4 hPa
Clouds: Clear
Visibility: 10 miles , 16 km
2019/01/17 13:52 KCQX 171352Z AUTO 34008KT 320V030 10SM CLR M04/M14 A3037 RMK AO2 SLP287 T10391139